sensor_id;sensor_type;location;lat;lon;timestamp;pressure;altitude;pressure_sealevel;temperature;humidity
27984;BME280;15317;50.360;8.726;2022-07-22T00:01:02;99898.91;;;17.33;100.00
27984;BME280;15317;50.360;8.726;2022-07-22T00:05:05;99885.59;;;17.15;100.00
27984;BME280;15317;50.360;8.726;2022-07-22T00:09:09;99903.13;;;16.99;100.00
27984;BME280;15317;50.360;8.726;2022-07-22T00:13:12;99896.91;;;16.91;100.00
27984;BME280;15317;50.360;8.726;2022-07-22T00:17:14;99895.56;;;16.87;100.00
27984;BME280;15317;50.360;8.726;2022-07-22T00:21:16;99903.34;;;16.83;100.00
27984;BME280;15317;50.360;8.726;2022-07-22T00:25:20;99890.66;;;16.82;100.00
27984;BME280;15317;50.360;8.726;2022-07-22T00:29:22;99892.72;;;16.80;100.00
27984;BME280;15317;50.360;8.726;2022-07-22T00:33:24;99889.63;;;16.83;100.00
27984;BME280;15317;50.360;8.726;2022-07-22T00:37:26;99889.53;;;16.91;100.00
27984;BME280;15317;50.360;8.726;2022-07-22T00:41:29;99882.09;;;17.07;100.00
27984;BME280;15317;50.360;8.726;2022-07-22T00:45:31;99883.81;;;17.08;100.00
27984;BME280;15317;50.360;8.726;2022-07-22T00:49:33;99879.66;;;17.12;100.00
27984;BME280;15317;50.360;8.726;2022-07-22T00:53:36;99877.25;;;17.23;100.00
27984;BME280;15317;50.360;8.726;2022-07-22T00:57:39;99871.16;;;17.28;100.00
27984;BME280;15317;50.360;8.726;2022-07-22T01:01:42;99875.63;;;17.29;100.00
27984;BME280;15317;50.360;8.726;2022-07-22T01:05:44;99876.28;;;17.31;100.00
27984;BME280;15317;50.360;8.726;2022-07-22T01:09:46;99867.66;;;17.34;100.00
27984;BME280;15317;50.360;8.726;2022-07-22T01:13:50;99873.13;;;17.34;100.00
27984;BME280;15317;50.360;8.726;2022-07-22T01:17:52;99872.75;;;17.37;100.00
27984;BME280;15317;50.360;8.726;2022-07-22T01:21:55;99876.03;;;17.47;100.00
27984;BME280;15317;50.360;8.726;2022-07-22T01:25:59;99873.69;;;17.44;100.00
27984;BME280;15317;50.360;8.726;2022-07-22T01:30:02;99871.31;;;17.41;100.00
27984;BME280;15317;50.360;8.726;2022-07-22T01:34:04;99865.19;;;17.39;100.00
27984;BME280;15317;50.360;8.726;2022-07-22T01:38:08;99864.78;;;17.42;100.00
27984;BME280;15317;50.360;8.726;2022-07-22T01:42:10;99858.00;;;17.38;100.00
27984;BME280;15317;50.360;8.726;2022-07-22T01:46:12;99859.03;;;17.37;100.00
27984;BME280;15317;50.360;8.726;2022-07-22T01:50:14;99862.38;;;17.32;100.00
27984;BME280;15317;50.360;8.726;2022-07-22T01:54:18;99861.53;;;17.32;100.00
27984;BME280;15317;50.360;8.726;2022-07-22T01:58:20;99858.56;;;17.33;100.00
27984;BME280;15317;50.360;8.726;2022-07-22T02:02:22;99859.63;;;17.32;100.00
27984;BME280;15317;50.360;8.726;2022-07-22T02:06:24;99859.56;;;17.26;100.00
27984;BME280;15317;50.360;8.726;2022-07-22T02:10:28;99863.53;;;17.23;100.00
27984;BME280;15317;50.360;8.726;2022-07-22T02:14:30;99863.72;;;17.22;100.00
27984;BME280;15317;50.360;8.726;2022-07-22T02:18:32;99872.34;;;17.19;100.00
27984;BME280;15317;50.360;8.726;2022-07-22T02:22:34;99868.75;;;17.18;100.00
27984;BME280;15317;50.360;8.726;2022-07-22T02:26:38;99863.72;;;17.22;100.00
27984;BME280;15317;50.360;8.726;2022-07-22T02:30:40;99862.00;;;17.21;100.00
27984;BME280;15317;50.360;8.726;2022-07-22T02:34:42;99873.75;;;17.15;100.00
27984;BME280;15317;50.360;8.726;2022-07-22T02:38:44;99871.41;;;17.12;100.00
27984;BME280;15317;50.360;8.726;2022-07-22T02:42:48;99865.19;;;17.03;100.00
27984;BME280;15317;50.360;8.726;2022-07-22T02:46:50;99863.41;;;16.95;100.00
27984;BME280;15317;50.360;8.726;2022-07-22T02:50:52;99876.28;;;16.80;100.00
27984;BME280;15317;50.360;8.726;2022-07-22T02:54:54;99867.88;;;16.67;100.00
27984;BME280;15317;50.360;8.726;2022-07-22T02:58:57;99870.03;;;16.57;100.00
27984;BME280;15317;50.360;8.726;2022-07-22T03:02:59;99879.47;;;16.40;100.00
27984;BME280;15317;50.360;8.726;2022-07-22T03:07:01;99876.16;;;16.30;100.00
27984;BME280;15317;50.360;8.726;2022-07-22T03:11:03;99875.56;;;16.19;100.00
27984;BME280;15317;50.360;8.726;2022-07-22T03:15:08;99865.53;;;16.12;100.00
27984;BME280;15317;50.360;8.726;2022-07-22T03:19:10;99875.63;;;16.11;100.00
27984;BME280;15317;50.360;8.726;2022-07-22T03:23:12;99880.66;;;16.08;100.00
27984;BME280;15317;50.360;8.726;2022-07-22T03:27:14;99874.66;;;16.04;100.00
27984;BME280;15317;50.360;8.726;2022-07-22T03:31:18;99874.31;;;16.07;100.00
27984;BME280;15317;50.360;8.726;2022-07-22T03:35:20;99875.00;;;16.09;100.00
27984;BME280;15317;50.360;8.726;2022-07-22T03:39:22;99872.25;;;16.09;100.00
27984;BME280;15317;50.360;8.726;2022-07-22T03:43:24;99877.34;;;16.12;100.00
27984;BME280;15317;50.360;8.726;2022-07-22T03:47:27;99883.69;;;16.13;100.00
27984;BME280;15317;50.360;8.726;2022-07-22T03:51:29;99893.50;;;16.07;100.00
27984;BME280;15317;50.360;8.726;2022-07-22T03:55:31;99892.81;;;16.05;100.00
27984;BME280;15317;50.360;8.726;2022-07-22T03:59:33;99892.81;;;16.05;100.00
27984;BME280;15317;50.360;8.726;2022-07-22T04:03:37;99894.31;;;15.93;100.00
27984;BME280;15317;50.360;8.726;2022-07-22T04:07:39;99897.41;;;15.90;100.00
27984;BME280;15317;50.360;8.726;2022-07-22T04:11:41;99896.38;;;15.91;100.00
27984;BME280;15317;50.360;8.726;2022-07-22T04:15:43;99892.25;;;15.95;100.00
27984;BME280;15317;50.360;8.726;2022-07-22T04:19:46;99893.56;;;15.99;100.00
27984;BME280;15317;50.360;8.726;2022-07-22T04:23:48;99888.00;;;16.07;100.00
27984;BME280;15317;50.360;8.726;2022-07-22T04:27:50;99883.09;;;16.17;100.00
27984;BME280;15317;50.360;8.726;2022-07-22T04:31:53;99885.22;;;16.30;100.00
27984;BME280;15317;50.360;8.726;2022-07-22T04:35:56;99883.63;;;16.36;100.00
27984;BME280;15317;50.360;8.726;2022-07-22T04:39:58;99879.72;;;16.45;100.00
27984;BME280;15317;50.360;8.726;2022-07-22T04:44:00;99881.84;;;16.57;100.00
27984;BME280;15317;50.360;8.726;2022-07-22T04:48:03;99874.38;;;16.66;100.00
27984;BME280;15317;50.360;8.726;2022-07-22T04:52:07;99880.44;;;16.76;100.00
27984;BME280;15317;50.360;8.726;2022-07-22T04:56:09;99880.13;;;16.86;100.00
27984;BME280;15317;50.360;8.726;2022-07-22T05:00:12;99876.25;;;16.95;100.00
27984;BME280;15317;50.360;8.726;2022-07-22T05:04:14;99875.03;;;17.12;100.00
27984;BME280;15317;50.360;8.726;2022-07-22T05:08:17;99870.38;;;17.34;100.00
27984;BME280;15317;50.360;8.726;2022-07-22T05:12:19;99878.19;;;18.43;100.00
27984;BME280;15317;50.360;8.726;2022-07-22T05:16:21;99876.50;;;19.79;93.24
27984;BME280;15317;50.360;8.726;2022-07-22T05:20:23;99873.44;;;20.92;86.91
27984;BME280;15317;50.360;8.726;2022-07-22T05:24:27;99882.34;;;21.01;82.23
27984;BME280;15317;50.360;8.726;2022-07-22T05:28:29;99881.75;;;20.85;82.62
27984;BME280;15317;50.360;8.726;2022-07-22T05:32:31;99893.44;;;20.81;80.09
27984;BME280;15317;50.360;8.726;2022-07-22T05:36:33;99887.56;;;21.15;80.22
27984;BME280;15317;50.360;8.726;2022-07-22T05:40:36;99889.03;;;21.31;77.43
27984;BME280;15317;50.360;8.726;2022-07-22T05:44:38;99887.16;;;21.70;75.80
27984;BME280;15317;50.360;8.726;2022-07-22T05:48:40;99892.59;;;21.83;72.11
27984;BME280;15317;50.360;8.726;2022-07-22T05:52:42;99895.03;;;21.66;69.61
27984;BME280;15317;50.360;8.726;2022-07-22T05:56:46;99893.50;;;22.08;67.89
27984;BME280;15317;50.360;8.726;2022-07-22T06:00:48;99895.88;;;21.98;69.02
27984;BME280;15317;50.360;8.726;2022-07-22T06:04:50;99903.88;;;21.81;68.11
27984;BME280;15317;50.360;8.726;2022-07-22T06:08:52;99895.84;;;21.35;71.32
27984;BME280;15317;50.360;8.726;2022-07-22T06:12:55;99892.34;;;21.53;70.38
27984;BME280;15317;50.360;8.726;2022-07-22T06:16:57;99901.97;;;21.37;69.04
27984;BME280;15317;50.360;8.726;2022-07-22T06:20:59;99903.34;;;21.02;71.12
27984;BME280;15317;50.360;8.726;2022-07-22T06:25:01;99888.91;;;21.57;69.87
27984;BME280;15317;50.360;8.726;2022-07-22T06:29:05;99903.00;;;21.43;68.96
27984;BME280;15317;50.360;8.726;2022-07-22T06:33:07;99903.91;;;21.30;69.16
27984;BME280;15317;50.360;8.726;2022-07-22T06:37:09;99899.28;;;21.24;69.64
27984;BME280;15317;50.360;8.726;2022-07-22T06:41:11;99893.34;;;21.14;71.05
27984;BME280;15317;50.360;8.726;2022-07-22T06:45:15;99896.06;;;21.27;70.54
27984;BME280;15317;50.360;8.726;2022-07-22T06:49:17;99888.09;;;21.50;68.43
27984;BME280;15317;50.360;8.726;2022-07-22T06:53:19;99887.16;;;21.70;69.23
27984;BME280;15317;50.360;8.726;2022-07-22T06:57:21;99881.41;;;22.02;68.03
27984;BME280;15317;50.360;8.726;2022-07-22T07:01:25;99878.56;;;22.34;66.09
27984;BME280;15317;50.360;8.726;2022-07-22T07:05:27;99888.63;;;22.53;63.85
27984;BME280;15317;50.360;8.726;2022-07-22T07:09:30;99888.63;;;22.53;63.11
27984;BME280;15317;50.360;8.726;2022-07-22T07:13:32;99879.59;;;22.39;63.97
27984;BME280;15317;50.360;8.726;2022-07-22T07:17:35;99881.91;;;22.42;64.42
27984;BME280;15317;50.360;8.726;2022-07-22T07:21:37;99879.38;;;22.59;64.01
27984;BME280;15317;50.360;8.726;2022-07-22T07:25:40;99888.75;;;22.15;65.05
27984;BME280;15317;50.360;8.726;2022-07-22T07:29:42;99877.88;;;22.38;65.58
27984;BME280;15317;50.360;8.726;2022-07-22T07:33:45;99877.53;;;22.78;64.37
27984;BME280;15317;50.360;8.726;2022-07-22T07:37:47;99878.56;;;23.20;64.20
27984;BME280;15317;50.360;8.726;2022-07-22T07:41:49;99869.59;;;23.00;62.10
27984;BME280;15317;50.360;8.726;2022-07-22T07:45:53;99863.97;;;22.70;62.49
27984;BME280;15317;50.360;8.726;2022-07-22T07:49:57;99860.41;;;22.63;62.90
27984;BME280;15317;50.360;8.726;2022-07-22T07:54:01;99859.22;;;22.95;63.06
27984;BME280;15317;50.360;8.726;2022-07-22T07:58:03;99851.38;;;23.10;61.30
27984;BME280;15317;50.360;8.726;2022-07-22T08:02:06;99847.69;;;22.98;63.54
27984;BME280;15317;50.360;8.726;2022-07-22T08:06:10;99850.28;;;23.11;62.84
27984;BME280;15317;50.360;8.726;2022-07-22T08:10:12;99844.25;;;23.33;60.34
27984;BME280;15317;50.360;8.726;2022-07-22T08:14:14;99835.31;;;23.49;61.80
27984;BME280;15317;50.360;8.726;2022-07-22T08:18:16;99846.03;;;23.27;59.50
27984;BME280;15317;50.360;8.726;2022-07-22T08:22:20;99846.75;;;23.04;61.45
27984;BME280;15317;50.360;8.726;2022-07-22T08:26:22;99852.38;;;22.98;60.93
27984;BME280;15317;50.360;8.726;2022-07-22T08:30:25;99848.19;;;23.07;61.93
27984;BME280;15317;50.360;8.726;2022-07-22T08:34:29;99840.72;;;23.26;59.35
27984;BME280;15317;50.360;8.726;2022-07-22T08:38:32;99836.19;;;23.31;58.88
27984;BME280;15317;50.360;8.726;2022-07-22T08:42:37;99834.66;;;23.65;59.35
27984;BME280;15317;50.360;8.726;2022-07-22T08:46:43;99836.78;;;24.05;56.38
27984;BME280;15317;50.360;8.726;2022-07-22T08:50:45;99825.16;;;23.84;56.81
27984;BME280;15317;50.360;8.726;2022-07-22T08:54:49;99831.25;;;23.63;57.51
27984;BME280;15317;50.360;8.726;2022-07-22T08:58:51;99824.72;;;24.11;57.97
27984;BME280;15317;50.360;8.726;2022-07-22T09:02:53;99824.13;;;24.09;58.82
27984;BME280;15317;50.360;8.726;2022-07-22T09:06:55;99817.75;;;24.08;57.31
27984;BME280;15317;50.360;8.726;2022-07-22T09:10:58;99825.34;;;24.13;57.62
27984;BME280;15317;50.360;8.726;2022-07-22T09:15:02;99822.56;;;24.13;57.01
27984;BME280;15317;50.360;8.726;2022-07-22T09:19:05;99828.66;;;24.33;58.70
27984;BME280;15317;50.360;8.726;2022-07-22T09:23:10;99814.28;;;24.24;57.90
27984;BME280;15317;50.360;8.726;2022-07-22T09:27:22;99822.38;;;24.26;57.48
27984;BME280;15317;50.360;8.726;2022-07-22T09:31:25;99821.72;;;24.70;55.81
27984;BME280;15317;50.360;8.726;2022-07-22T09:35:28;99822.56;;;24.71;54.76
27984;BME280;15317;50.360;8.726;2022-07-22T09:39:31;99814.72;;;24.79;54.57
27984;BME280;15317;50.360;8.726;2022-07-22T09:43:36;99817.28;;;24.46;56.24
27984;BME280;15317;50.360;8.726;2022-07-22T09:47:40;99811.28;;;24.49;55.73
27984;BME280;15317;50.360;8.726;2022-07-22T09:51:43;99816.03;;;24.89;54.60
27984;BME280;15317;50.360;8.726;2022-07-22T09:55:45;99811.28;;;24.49;54.62
27984;BME280;15317;50.360;8.726;2022-07-22T09:59:49;99809.41;;;24.78;55.57
27984;BME280;15317;50.360;8.726;2022-07-22T10:03:52;99805.75;;;24.89;54.60
27984;BME280;15317;50.360;8.726;2022-07-22T10:07:56;99798.91;;;25.48;54.49
27984;BME280;15317;50.360;8.726;2022-07-22T10:11:59;99783.75;;;25.11;52.94
27984;BME280;15317;50.360;8.726;2022-07-22T10:16:04;99787.25;;;25.06;54.07
27984;BME280;15317;50.360;8.726;2022-07-22T10:20:07;99798.88;;;24.92;54.02
27984;BME280;15317;50.360;8.726;2022-07-22T10:24:11;99781.94;;;25.05;55.37
27984;BME280;15317;50.360;8.726;2022-07-22T10:28:21;99773.44;;;25.40;53.34
27984;BME280;15317;50.360;8.726;2022-07-22T10:32:25;99773.47;;;25.56;52.04
27984;BME280;15317;50.360;8.726;2022-07-22T10:36:32;99770.94;;;25.55;54.08
27984;BME280;15317;50.360;8.726;2022-07-22T10:40:49;99765.13;;;25.85;52.79
27984;BME280;15317;50.360;8.726;2022-07-22T10:44:56;99764.09;;;25.74;51.39
27984;BME280;15317;50.360;8.726;2022-07-22T10:49:00;99762.38;;;26.23;50.83
27984;BME280;15317;50.360;8.726;2022-07-22T10:53:06;99764.78;;;26.31;49.58
27984;BME280;15317;50.360;8.726;2022-07-22T10:57:09;99760.88;;;26.32;50.14
27984;BME280;15317;50.360;8.726;2022-07-22T11:01:15;99757.06;;;26.39;49.26
27984;BME280;15317;50.360;8.726;2022-07-22T11:05:25;99748.38;;;26.18;49.74
27984;BME280;15317;50.360;8.726;2022-07-22T11:09:31;99731.84;;;26.28;50.17
27984;BME280;15317;50.360;8.726;2022-07-22T11:13:35;99734.00;;;26.43;49.44
27984;BME280;15317;50.360;8.726;2022-07-22T11:17:39;99726.06;;;26.13;49.53
27984;BME280;15317;50.360;8.726;2022-07-22T11:21:49;99724.69;;;26.32;49.72
27984;BME280;15317;50.360;8.726;2022-07-22T11:25:51;99718.56;;;26.52;49.53
27984;BME280;15317;50.360;8.726;2022-07-22T11:29:54;99719.72;;;26.78;50.25
27984;BME280;15317;50.360;8.726;2022-07-22T11:34:04;99717.66;;;26.90;49.20
27984;BME280;15317;50.360;8.726;2022-07-22T11:38:08;99709.59;;;27.16;48.21
27984;BME280;15317;50.360;8.726;2022-07-22T11:42:10;99711.63;;;26.98;47.97
27984;BME280;15317;50.360;8.726;2022-07-22T11:46:13;99703.94;;;27.10;48.24
27984;BME280;15317;50.360;8.726;2022-07-22T11:50:15;99700.94;;;27.44;49.05
27984;BME280;15317;50.360;8.726;2022-07-22T11:54:19;99692.94;;;27.52;47.50
27984;BME280;15317;50.360;8.726;2022-07-22T11:58:33;99684.41;;;27.64;46.25
27984;BME280;15317;50.360;8.726;2022-07-22T12:02:35;99686.66;;;27.35;47.23
27984;BME280;15317;50.360;8.726;2022-07-22T12:06:40;99679.19;;;27.46;46.23
27984;BME280;15317;50.360;8.726;2022-07-22T12:10:44;99678.59;;;27.44;46.43
27984;BME280;15317;50.360;8.726;2022-07-22T12:14:47;99678.41;;;27.24;46.64
27984;BME280;15317;50.360;8.726;2022-07-22T12:18:54;99680.84;;;27.42;46.24
27984;BME280;15317;50.360;8.726;2022-07-22T12:22:56;99673.66;;;27.51;46.09
27984;BME280;15317;50.360;8.726;2022-07-22T12:27:03;99663.03;;;27.48;46.25
27984;BME280;15317;50.360;8.726;2022-07-22T12:31:05;99662.47;;;27.46;46.32
27984;BME280;15317;50.360;8.726;2022-07-22T12:35:07;99668.81;;;27.68;46.02
27984;BME280;15317;50.360;8.726;2022-07-22T12:39:17;99657.94;;;27.40;46.00
27984;BME280;15317;50.360;8.726;2022-07-22T12:43:23;99659.84;;;27.61;47.25
27984;BME280;15317;50.360;8.726;2022-07-22T12:47:40;99646.66;;;27.94;46.67
27984;BME280;15317;50.360;8.726;2022-07-22T12:52:10;99650.06;;;28.01;44.88
27984;BME280;15317;50.360;8.726;2022-07-22T12:56:12;99644.91;;;27.50;45.57
27984;BME280;15317;50.360;8.726;2022-07-22T13:00:20;99643.38;;;27.65;45.12
27984;BME280;15317;50.360;8.726;2022-07-22T13:04:23;99633.50;;;27.84;44.66
27984;BME280;15317;50.360;8.726;2022-07-22T13:08:26;99618.91;;;28.19;44.54
27984;BME280;15317;50.360;8.726;2022-07-22T13:12:28;99620.97;;;28.44;43.98
27984;BME280;15317;50.360;8.726;2022-07-22T13:16:32;99616.78;;;28.41;43.77
27984;BME280;15317;50.360;8.726;2022-07-22T13:20:34;99612.28;;;28.35;44.29
27984;BME280;15317;50.360;8.726;2022-07-22T13:24:36;99607.22;;;28.27;44.71
27984;BME280;15317;50.360;8.726;2022-07-22T13:28:38;99613.38;;;28.29;43.37
27984;BME280;15317;50.360;8.726;2022-07-22T13:32:41;99609.47;;;28.30;44.80
27984;BME280;15317;50.360;8.726;2022-07-22T13:36:43;99612.59;;;28.44;44.08
27984;BME280;15317;50.360;8.726;2022-07-22T13:40:45;99616.34;;;28.75;43.12
27984;BME280;15317;50.360;8.726;2022-07-22T13:44:51;99609.69;;;28.91;42.65
27984;BME280;15317;50.360;8.726;2022-07-22T13:48:56;99603.47;;;28.74;42.82
27984;BME280;15317;50.360;8.726;2022-07-22T13:52:58;99593.44;;;28.78;42.45
27984;BME280;15317;50.360;8.726;2022-07-22T13:57:00;99599.91;;;29.03;42.34
27984;BME280;15317;50.360;8.726;2022-07-22T14:01:02;99589.47;;;28.58;42.48
27984;BME280;15317;50.360;8.726;2022-07-22T14:05:07;99590.03;;;28.71;42.91
27984;BME280;15317;50.360;8.726;2022-07-22T14:09:09;99582.00;;;28.79;42.36
27984;BME280;15317;50.360;8.726;2022-07-22T14:13:11;99583.94;;;28.89;42.48
27984;BME280;15317;50.360;8.726;2022-07-22T14:17:13;99586.19;;;29.07;42.39
27984;BME280;15317;50.360;8.726;2022-07-22T14:21:16;99573.38;;;29.06;42.52
27984;BME280;15317;50.360;8.726;2022-07-22T14:25:18;99569.91;;;28.63;42.86
27984;BME280;15317;50.360;8.726;2022-07-22T14:29:21;99572.19;;;28.87;42.38
27984;BME280;15317;50.360;8.726;2022-07-22T14:33:23;99575.31;;;29.05;42.13
27984;BME280;15317;50.360;8.726;2022-07-22T14:37:26;99575.25;;;28.80;42.38
27984;BME280;15317;50.360;8.726;2022-07-22T14:41:28;99572.81;;;29.19;41.65
27984;BME280;15317;50.360;8.726;2022-07-22T14:45:30;99572.78;;;29.24;41.34
27984;BME280;15317;50.360;8.726;2022-07-22T14:49:32;99557.16;;;29.13;42.61
27984;BME280;15317;50.360;8.726;2022-07-22T14:53:36;99558.81;;;29.24;41.78
27984;BME280;15317;50.360;8.726;2022-07-22T14:57:38;99559.38;;;29.06;41.41
27984;BME280;15317;50.360;8.726;2022-07-22T15:01:40;99563.28;;;29.10;41.54
27984;BME280;15317;50.360;8.726;2022-07-22T15:05:42;99552.94;;;29.31;41.12
27984;BME280;15317;50.360;8.726;2022-07-22T15:09:45;99540.34;;;29.23;41.52
27984;BME280;15317;50.360;8.726;2022-07-22T15:13:47;99548.75;;;29.18;41.54
27984;BME280;15317;50.360;8.726;2022-07-22T15:17:50;99549.03;;;29.06;41.97
27984;BME280;15317;50.360;8.726;2022-07-22T15:21:52;99543.44;;;29.12;42.15
27984;BME280;15317;50.360;8.726;2022-07-22T15:25:55;99541.47;;;29.22;41.52
27984;BME280;15317;50.360;8.726;2022-07-22T15:29:58;99539.25;;;28.99;41.33
27984;BME280;15317;50.360;8.726;2022-07-22T15:34:01;99527.47;;;28.97;41.24
27984;BME280;15317;50.360;8.726;2022-07-22T15:38:03;99523.03;;;28.86;42.55
27984;BME280;15317;50.360;8.726;2022-07-22T15:42:06;99518.56;;;29.00;42.05
27984;BME280;15317;50.360;8.726;2022-07-22T15:46:08;99525.78;;;29.01;41.87
27984;BME280;15317;50.360;8.726;2022-07-22T15:50:11;99524.66;;;28.72;42.68
27984;BME280;15317;50.360;8.726;2022-07-22T15:54:13;99515.59;;;28.24;42.92
27984;BME280;15317;50.360;8.726;2022-07-22T15:58:17;99511.47;;;28.62;43.55
27984;BME280;15317;50.360;8.726;2022-07-22T16:02:36;99500.59;;;28.65;43.34
27984;BME280;15317;50.360;8.726;2022-07-22T16:06:38;99500.34;;;28.72;42.46
27984;BME280;15317;50.360;8.726;2022-07-22T16:10:40;99494.44;;;28.63;42.15
27984;BME280;15317;50.360;8.726;2022-07-22T16:14:44;99497.78;;;28.60;42.55
27984;BME280;15317;50.360;8.726;2022-07-22T16:18:46;99489.97;;;28.67;42.64
27984;BME280;15317;50.360;8.726;2022-07-22T16:22:49;99488.84;;;28.74;42.52
27984;BME280;15317;50.360;8.726;2022-07-22T16:26:51;99492.25;;;28.76;42.16
27984;BME280;15317;50.360;8.726;2022-07-22T16:30:54;99481.00;;;28.50;43.03
27984;BME280;15317;50.360;8.726;2022-07-22T16:34:56;99468.16;;;28.49;42.71
27984;BME280;15317;50.360;8.726;2022-07-22T16:38:58;99473.19;;;28.62;43.23
27984;BME280;15317;50.360;8.726;2022-07-22T16:43:01;99465.91;;;28.41;42.40
27984;BME280;15317;50.360;8.726;2022-07-22T16:47:04;99460.59;;;28.40;43.13
27984;BME280;15317;50.360;8.726;2022-07-22T16:51:08;99457.81;;;28.50;43.65
27984;BME280;15317;50.360;8.726;2022-07-22T16:55:10;99448.88;;;28.53;42.97
27984;BME280;15317;50.360;8.726;2022-07-22T16:59:13;99460.75;;;28.03;44.03
27984;BME280;15317;50.360;8.726;2022-07-22T17:03:16;99451.22;;;27.94;44.66
27984;BME280;15317;50.360;8.726;2022-07-22T17:07:18;99455.13;;;27.87;44.83
27984;BME280;15317;50.360;8.726;2022-07-22T17:11:20;99454.59;;;27.90;45.12
27984;BME280;15317;50.360;8.726;2022-07-22T17:15:22;99460.13;;;27.85;44.34
27984;BME280;15317;50.360;8.726;2022-07-22T17:19:26;99460.19;;;28.01;44.29
27984;BME280;15317;50.360;8.726;2022-07-22T17:23:28;99456.88;;;28.09;43.77
27984;BME280;15317;50.360;8.726;2022-07-22T17:27:30;99454.06;;;28.04;44.33
27984;BME280;15317;50.360;8.726;2022-07-22T17:31:33;99454.34;;;27.97;44.44
27984;BME280;15317;50.360;8.726;2022-07-22T17:35:37;99460.19;;;28.06;44.42
27984;BME280;15317;50.360;8.726;2022-07-22T17:39:42;99474.06;;;27.75;44.29
27984;BME280;15317;50.360;8.726;2022-07-22T17:43:44;99460.97;;;27.81;44.57
27984;BME280;15317;50.360;8.726;2022-07-22T17:47:46;99457.25;;;27.65;44.79
27984;BME280;15317;50.360;8.726;2022-07-22T17:51:49;99450.47;;;27.51;45.05
27984;BME280;15317;50.360;8.726;2022-07-22T17:55:54;99448.22;;;27.43;47.06
27984;BME280;15317;50.360;8.726;2022-07-22T17:59:56;99461.00;;;27.39;45.38
27984;BME280;15317;50.360;8.726;2022-07-22T18:03:58;99468.75;;;27.32;46.06
27984;BME280;15317;50.360;8.726;2022-07-22T18:08:02;99463.63;;;27.13;47.21
27984;BME280;15317;50.360;8.726;2022-07-22T18:12:05;99478.88;;;27.01;47.31
27984;BME280;15317;50.360;8.726;2022-07-22T18:16:07;99454.97;;;26.78;50.08
27984;BME280;15317;50.360;8.726;2022-07-22T18:20:10;99445.41;;;26.69;50.33
27984;BME280;15317;50.360;8.726;2022-07-22T18:24:13;99433.94;;;26.60;50.66
27984;BME280;15317;50.360;8.726;2022-07-22T18:28:15;99427.38;;;26.45;51.44
27984;BME280;15317;50.360;8.726;2022-07-22T18:32:17;99417.78;;;26.30;52.50
27984;BME280;15317;50.360;8.726;2022-07-22T18:36:20;99422.66;;;26.18;52.45
27984;BME280;15317;50.360;8.726;2022-07-22T18:40:23;99418.59;;;26.04;52.89
27984;BME280;15317;50.360;8.726;2022-07-22T18:44:27;99417.91;;;25.92;54.04
27984;BME280;15317;50.360;8.726;2022-07-22T18:48:29;99406.03;;;25.75;54.22
27984;BME280;15317;50.360;8.726;2022-07-22T18:52:32;99405.31;;;25.63;54.60
27984;BME280;15317;50.360;8.726;2022-07-22T18:56:35;99401.81;;;25.50;55.35
27984;BME280;15317;50.360;8.726;2022-07-22T19:00:37;99408.47;;;25.49;53.79
27984;BME280;15317;50.360;8.726;2022-07-22T19:04:40;99411.63;;;25.36;54.45
27984;BME280;15317;50.360;8.726;2022-07-22T19:08:42;99412.75;;;25.35;55.16
27984;BME280;15317;50.360;8.726;2022-07-22T19:12:45;99405.94;;;25.26;55.22
27984;BME280;15317;50.360;8.726;2022-07-22T19:16:47;99411.88;;;25.13;56.24
27984;BME280;15317;50.360;8.726;2022-07-22T19:20:49;99417.53;;;25.01;56.19
27984;BME280;15317;50.360;8.726;2022-07-22T19:24:52;99423.53;;;24.93;56.93
27984;BME280;15317;50.360;8.726;2022-07-22T19:28:55;99432.44;;;24.78;56.81
27984;BME280;15317;50.360;8.726;2022-07-22T19:32:58;99435.44;;;24.77;56.94
27984;BME280;15317;50.360;8.726;2022-07-22T19:37:00;99442.72;;;24.61;57.53
27984;BME280;15317;50.360;8.726;2022-07-22T19:41:02;99447.75;;;24.48;58.06
27984;BME280;15317;50.360;8.726;2022-07-22T19:45:06;99453.47;;;24.41;58.37
27984;BME280;15317;50.360;8.726;2022-07-22T19:49:08;99456.28;;;24.29;58.86
27984;BME280;15317;50.360;8.726;2022-07-22T19:53:10;99462.00;;;24.23;58.53
27984;BME280;15317;50.360;8.726;2022-07-22T19:57:12;99467.34;;;24.13;59.36
27984;BME280;15317;50.360;8.726;2022-07-22T20:01:16;99463.63;;;24.07;59.19
27984;BME280;15317;50.360;8.726;2022-07-22T20:05:18;99459.56;;;23.98;59.95
27984;BME280;15317;50.360;8.726;2022-07-22T20:09:20;99457.31;;;23.95;61.00
27984;BME280;15317;50.360;8.726;2022-07-22T20:13:22;99469.88;;;23.86;61.44
27984;BME280;15317;50.360;8.726;2022-07-22T20:17:25;99465.84;;;23.65;62.67
27984;BME280;15317;50.360;8.726;2022-07-22T20:21:27;99465.59;;;23.55;63.95
27984;BME280;15317;50.360;8.726;2022-07-22T20:25:29;99459.81;;;23.45;64.18
27984;BME280;15317;50.360;8.726;2022-07-22T20:29:31;99460.56;;;23.29;65.26
27984;BME280;15317;50.360;8.726;2022-07-22T20:33:35;99457.44;;;23.13;66.13
27984;BME280;15317;50.360;8.726;2022-07-22T20:37:37;99461.44;;;23.06;67.00
27984;BME280;15317;50.360;8.726;2022-07-22T20:41:39;99483.56;;;22.94;67.70
27984;BME280;15317;50.360;8.726;2022-07-22T20:45:41;99482.63;;;22.77;68.75
27984;BME280;15317;50.360;8.726;2022-07-22T20:49:45;99487.38;;;22.58;70.21
27984;BME280;15317;50.360;8.726;2022-07-22T20:53:47;99504.66;;;22.42;70.63
27984;BME280;15317;50.360;8.726;2022-07-22T20:57:49;99506.91;;;22.33;71.01
27984;BME280;15317;50.360;8.726;2022-07-22T21:01:51;99505.94;;;22.28;71.50
27984;BME280;15317;50.360;8.726;2022-07-22T21:05:55;99502.63;;;22.19;72.07
27984;BME280;15317;50.360;8.726;2022-07-22T21:09:57;99505.50;;;22.13;72.31
27984;BME280;15317;50.360;8.726;2022-07-22T21:13:59;99489.94;;;22.00;72.99
27984;BME280;15317;50.360;8.726;2022-07-22T21:18:01;99485.47;;;21.99;73.53
27984;BME280;15317;50.360;8.726;2022-07-22T21:22:04;99492.09;;;21.98;73.64